Time;durP1;ratioP1;P1;durP2;ratioP2;P2;SDS_P1;SDS_P2;PMS_P1;PMS_P2;Temp;Humidity;BMP_temperature;BMP_pressure;BME280_temperature;BME280_humidity;BME280_pressure;Samples;Min_cycle;Max_cycle;Signal;HPM_P1;HPM_P2
2021/03/02 00:00:16;;;;;;;18.92;12.00;;;;;;;;;;5136376;27;20202;-64
2021/03/02 00:02:43;;;;;;;20.35;12.73;;;;;;;;;;5136351;27;20637;-65
2021/03/02 00:05:12;;;;;;;18.02;11.75;;;;;;;;;;5136027;27;20193;-64
2021/03/02 00:07:39;;;;;;;16.67;11.52;;;;;;;;;;5136145;27;20212;-64
2021/03/02 00:10:10;;;;;;;22.25;13.93;;;;;;;;;;5136312;27;20249;-64
2021/03/02 00:12:37;;;;;;;22.67;12.07;;;;;;;;;;5134764;27;20206;-64
2021/03/02 00:15:04;;;;;;;21.40;12.85;;;;;;;;;;5144672;27;20201;-64
2021/03/02 00:17:33;;;;;;;24.38;13.73;;;;;;;;;;5135542;27;20197;-64
2021/03/02 00:20:03;;;;;;;20.83;12.15;;;;;;;;;;5135308;27;20198;-64
2021/03/02 00:22:35;;;;;;;19.27;13.50;;;;;;;;;;5135581;27;20216;-64
2021/03/02 00:25:06;;;;;;;19.17;11.75;;;;;;;;;;5135807;27;20181;-64
2021/03/02 00:27:35;;;;;;;18.92;11.75;;;;;;;;;;5135263;27;20174;-64
2021/03/02 00:30:05;;;;;;;18.58;12.20;;;;;;;;;;5135205;27;20198;-64
2021/03/02 00:32:32;;;;;;;15.48;10.82;;;;;;;;;;5135522;27;20208;-64
2021/03/02 00:34:59;;;;;;;24.55;14.20;;;;;;;;;;5116237;27;20209;-64
2021/03/02 00:37:28;;;;;;;18.45;12.10;;;;;;;;;;5135230;27;20238;-63
2021/03/02 00:39:55;;;;;;;21.13;12.30;;;;;;;;;;5136188;27;20208;-64
2021/03/02 00:42:25;;;;;;;21.23;12.65;;;;;;;;;;5135178;27;20194;-64
2021/03/02 00:44:52;;;;;;;23.60;12.70;;;;;;;;;;5143198;27;20555;-64
2021/03/02 00:47:18;;;;;;;19.95;12.68;;;;;;;;;;5116201;28;20205;-64
2021/03/02 00:49:46;;;;;;;21.55;13.50;;;;;;;;;;5134007;27;20568;-64
2021/03/02 00:52:13;;;;;;;19.80;12.75;;;;;;;;;;5134301;27;20234;-64
2021/03/02 00:54:41;;;;;;;16.60;11.52;;;;;;;;;;5135143;27;20190;-64
2021/03/02 00:57:08;;;;;;;20.60;12.45;;;;;;;;;;5134701;27;20209;-64
2021/03/02 00:59:35;;;;;;;20.90;13.65;;;;;;;;;;5135116;27;20186;-64
2021/03/02 01:02:02;;;;;;;18.60;12.38;;;;;;;;;;5134661;27;20645;-64
2021/03/02 01:04:31;;;;;;;21.63;11.85;;;;;;;;;;5134935;27;20193;-66
2021/03/02 01:06:59;;;;;;;21.30;12.20;;;;;;;;;;5135217;27;20239;-64
2021/03/02 01:09:26;;;;;;;18.40;11.88;;;;;;;;;;5135268;27;20213;-64
2021/03/02 01:11:53;;;;;;;17.63;11.77;;;;;;;;;;5135145;28;20201;-64
2021/03/02 01:14:20;;;;;;;19.92;12.50;;;;;;;;;;5143108;27;20205;-64
2021/03/02 01:16:47;;;;;;;19.42;12.90;;;;;;;;;;5134914;28;20199;-64
2021/03/02 01:19:14;;;;;;;19.90;12.52;;;;;;;;;;5135410;28;20551;-64
2021/03/02 01:21:41;;;;;;;18.35;12.35;;;;;;;;;;5135010;28;20284;-64
2021/03/02 01:24:11;;;;;;;21.50;13.52;;;;;;;;;;5137045;27;20198;-64
2021/03/02 01:26:37;;;;;;;20.33;12.90;;;;;;;;;;5120292;27;20204;-64
2021/03/02 01:29:07;;;;;;;19.20;12.27;;;;;;;;;;5138953;27;20227;-64
2021/03/02 01:31:33;;;;;;;21.50;14.60;;;;;;;;;;5139005;27;20243;-64
2021/03/02 01:34:03;;;;;;;18.67;12.13;;;;;;;;;;5138986;27;20246;-64
2021/03/02 01:36:30;;;;;;;22.58;13.30;;;;;;;;;;5139039;27;20247;-64
2021/03/02 01:38:58;;;;;;;15.88;11.50;;;;;;;;;;5120536;27;20231;-64
2021/03/02 01:41:24;;;;;;;21.40;12.82;;;;;;;;;;5139088;27;20200;-64
2021/03/02 01:43:53;;;;;;;20.52;12.70;;;;;;;;;;5145831;27;20236;-64
2021/03/02 01:46:20;;;;;;;18.20;11.40;;;;;;;;;;5140895;27;20667;-63
2021/03/02 01:48:47;;;;;;;20.10;12.45;;;;;;;;;;5138597;27;20678;-63
2021/03/02 01:51:13;;;;;;;19.52;12.40;;;;;;;;;;5138732;27;20754;-63
2021/03/02 01:53:40;;;;;;;20.10;11.23;;;;;;;;;;5138761;27;20556;-63
2021/03/02 01:56:08;;;;;;;19.20;11.35;;;;;;;;;;5138364;27;20190;-64
2021/03/02 01:58:34;;;;;;;16.38;10.73;;;;;;;;;;5138706;27;20204;-64
2021/03/02 02:01:04;;;;;;;16.85;11.93;;;;;;;;;;5138731;27;20193;-64
2021/03/02 02:03:49;;;;;;;19.88;12.82;;;;;;;;;;5138749;27;20216;-64
2021/03/02 02:06:19;;;;;;;18.00;11.63;;;;;;;;;;5138662;27;20201;-63
2021/03/02 02:08:52;;;;;;;21.00;12.13;;;;;;;;;;5138388;27;20226;-63
2021/03/02 02:11:21;;;;;;;16.50;11.63;;;;;;;;;;5137846;27;20226;-63
2021/03/02 02:13:53;;;;;;;18.17;10.82;;;;;;;;;;5144637;27;20204;-64
2021/03/02 02:16:23;;;;;;;15.57;11.35;;;;;;;;;;5118527;27;20198;-64
2021/03/02 02:18:51;;;;;;;19.02;10.75;;;;;;;;;;5137798;27;20280;-63
2021/03/02 02:21:34;;;;;;;20.10;11.15;;;;;;;;;;5138370;27;20279;-64
2021/03/02 02:24:09;;;;;;;19.27;11.00;;;;;;;;;;5138157;27;20180;-63
2021/03/02 02:26:42;;;;;;;17.80;11.55;;;;;;;;;;5119655;27;20198;-63
2021/03/02 02:29:09;;;;;;;17.40;11.57;;;;;;;;;;5138350;27;20186;-63
2021/03/02 02:31:38;;;;;;;19.73;11.25;;;;;;;;;;5137458;27;20225;-63
2021/03/02 02:34:05;;;;;;;24.38;12.02;;;;;;;;;;5138203;27;20198;-63
2021/03/02 02:36:34;;;;;;;20.67;11.45;;;;;;;;;;5136795;27;20197;-63
2021/03/02 02:39:01;;;;;;;14.32;10.63;;;;;;;;;;5137907;27;20272;-63
2021/03/02 02:41:28;;;;;;;16.73;10.45;;;;;;;;;;5137883;27;20210;-63
2021/03/02 02:43:57;;;;;;;14.15;10.10;;;;;;;;;;5127375;27;20573;-63
2021/03/02 02:46:26;;;;;;;15.98;11.10;;;;;;;;;;5138422;27;20197;-63
2021/03/02 02:48:54;;;;;;;17.42;10.48;;;;;;;;;;5137086;27;20228;-63
2021/03/02 02:51:20;;;;;;;16.55;11.13;;;;;;;;;;5137064;27;20225;-63
2021/03/02 02:53:47;;;;;;;18.17;11.60;;;;;;;;;;5137489;27;20184;-63
2021/03/02 02:56:17;;;;;;;17.60;10.65;;;;;;;;;;5137607;27;20202;-63
2021/03/02 02:58:53;;;;;;;21.38;11.50;;;;;;;;;;5137364;27;20231;-63
2021/03/02 03:01:22;;;;;;;20.45;11.40;;;;;;;;;;5137233;27;20198;-63
2021/03/02 03:03:49;;;;;;;18.52;11.20;;;;;;;;;;5137353;27;20790;-63
2021/03/02 03:06:18;;;;;;;16.75;11.50;;;;;;;;;;5118126;27;20267;-63
2021/03/02 03:08:49;;;;;;;19.48;11.45;;;;;;;;;;5137110;27;20197;-63
2021/03/02 03:11:21;;;;;;;16.52;10.75;;;;;;;;;;5119204;27;20194;-63
2021/03/02 03:13:49;;;;;;;24.95;11.55;;;;;;;;;;5143636;27;20287;-63
2021/03/02 03:16:23;;;;;;;17.50;11.60;;;;;;;;;;5133783;27;20333;-63
2021/03/02 03:18:51;;;;;;;19.88;11.85;;;;;;;;;;5136942;27;20194;-63
2021/03/02 03:21:18;;;;;;;16.70;10.15;;;;;;;;;;5136263;27;20202;-63
2021/03/02 03:23:46;;;;;;;18.92;10.57;;;;;;;;;;5136898;27;20599;-63
2021/03/02 03:26:15;;;;;;;16.67;11.15;;;;;;;;;;5137089;27;20209;-63
2021/03/02 03:28:47;;;;;;;16.90;12.13;;;;;;;;;;5136858;27;20604;-63
2021/03/02 03:31:14;;;;;;;16.77;12.25;;;;;;;;;;5136740;27;20228;-63
2021/03/02 03:33:41;;;;;;;24.02;12.88;;;;;;;;;;5136255;27;20186;-63
2021/03/02 03:36:12;;;;;;;18.83;11.93;;;;;;;;;;5137379;27;20209;-65
2021/03/02 03:38:39;;;;;;;20.00;12.90;;;;;;;;;;5134349;27;20212;-63
2021/03/02 03:41:06;;;;;;;19.50;11.63;;;;;;;;;;5136401;27;20198;-64
2021/03/02 03:43:33;;;;;;;17.27;11.60;;;;;;;;;;5142331;27;20694;-63
2021/03/02 03:46:02;;;;;;;17.00;11.48;;;;;;;;;;5138819;27;20205;-64
2021/03/02 03:48:29;;;;;;;17.50;12.00;;;;;;;;;;5136259;27;20212;-64
2021/03/02 03:50:56;;;;;;;17.52;11.10;;;;;;;;;;5136334;27;20221;-63
2021/03/02 03:53:23;;;;;;;19.92;11.38;;;;;;;;;;5133028;27;20202;-63
2021/03/02 03:55:51;;;;;;;16.27;11.02;;;;;;;;;;5136147;27;20189;-63
2021/03/02 03:58:29;;;;;;;19.40;12.25;;;;;;;;;;5136329;27;20536;-63
2021/03/02 04:00:56;;;;;;;15.20;11.20;;;;;;;;;;5136102;27;20653;-63
2021/03/02 04:03:27;;;;;;;20.90;10.43;;;;;;;;;;5123092;27;20217;-63
2021/03/02 04:05:54;;;;;;;17.60;12.20;;;;;;;;;;5134405;27;20186;-63
2021/03/02 04:08:21;;;;;;;20.35;12.45;;;;;;;;;;5135508;27;20191;-63
2021/03/02 04:10:48;;;;;;;24.27;11.98;;;;;;;;;;5134914;27;20214;-63
2021/03/02 04:13:16;;;;;;;20.20;12.93;;;;;;;;;;5137792;27;20206;-63
2021/03/02 04:15:43;;;;;;;19.20;12.07;;;;;;;;;;5139953;27;20744;-63
2021/03/02 04:18:14;;;;;;;21.67;12.38;;;;;;;;;;5136048;27;20182;-63
2021/03/02 04:20:41;;;;;;;22.17;12.30;;;;;;;;;;5134536;27;20206;-63
2021/03/02 04:23:08;;;;;;;20.05;11.60;;;;;;;;;;5135498;27;20204;-63
2021/03/02 04:25:35;;;;;;;18.38;11.57;;;;;;;;;;5135646;27;20212;-63
2021/03/02 04:28:03;;;;;;;19.35;11.55;;;;;;;;;;5135538;27;20189;-63
2021/03/02 04:30:29;;;;;;;17.83;10.40;;;;;;;;;;5135381;27;20270;-63
2021/03/02 04:32:56;;;;;;;21.10;12.05;;;;;;;;;;5135832;27;20190;-63
2021/03/02 04:35:23;;;;;;;20.95;11.50;;;;;;;;;;5135887;27;20194;-63
2021/03/02 04:37:52;;;;;;;19.25;12.23;;;;;;;;;;5135670;27;20190;-63
2021/03/02 04:40:19;;;;;;;18.70;11.95;;;;;;;;;;5134851;27;20228;-63
2021/03/02 04:42:46;;;;;;;19.13;11.95;;;;;;;;;;5135134;27;20209;-63
2021/03/02 04:45:15;;;;;;;19.90;11.65;;;;;;;;;;5144007;27;20227;-63
2021/03/02 04:47:43;;;;;;;16.30;10.65;;;;;;;;;;5135185;27;20201;-63
2021/03/02 04:50:14;;;;;;;20.70;10.85;;;;;;;;;;5135385;27;20205;-63
2021/03/02 04:52:41;;;;;;;20.08;11.93;;;;;;;;;;5116166;27;20230;-63
2021/03/02 04:55:08;;;;;;;33.85;18.23;;;;;;;;;;5134487;27;20201;-63
2021/03/02 04:57:39;;;;;;;51.35;27.35;;;;;;;;;;5134364;27;20197;-63
2021/03/02 05:00:07;;;;;;;50.70;27.00;;;;;;;;;;5134794;27;20293;-63
2021/03/02 05:02:34;;;;;;;35.08;19.40;;;;;;;;;;5133943;27;20653;-64
2021/03/02 05:05:07;;;;;;;27.15;17.65;;;;;;;;;;5135103;27;20601;-63
2021/03/02 05:07:33;;;;;;;29.70;16.98;;;;;;;;;;5134978;27;20190;-63
2021/03/02 05:10:04;;;;;;;18.95;12.35;;;;;;;;;;5116866;27;20175;-65
2021/03/02 05:12:33;;;;;;;22.85;12.57;;;;;;;;;;5134500;27;20549;-62
2021/03/02 05:15:01;;;;;;;12.85;10.55;;;;;;;;;;5143406;27;20543;-62
2021/03/02 05:17:29;;;;;;;16.65;11.13;;;;;;;;;;5134712;28;20189;-65
2021/03/02 05:20:00;;;;;;;21.70;12.38;;;;;;;;;;5134503;28;20572;-65
2021/03/02 05:22:26;;;;;;;18.75;11.60;;;;;;;;;;5134477;28;20546;-65
2021/03/02 05:24:56;;;;;;;19.42;11.20;;;;;;;;;;5134737;28;20198;-62
2021/03/02 05:27:23;;;;;;;18.48;12.60;;;;;;;;;;5134961;28;20182;-65
2021/03/02 05:29:49;;;;;;;22.33;11.23;;;;;;;;;;5135039;28;20212;-65
2021/03/02 05:32:16;;;;;;;23.45;12.15;;;;;;;;;;5134905;28;20665;-65
2021/03/02 05:34:45;;;;;;;18.27;10.30;;;;;;;;;;5134596;28;20197;-62
2021/03/02 05:37:12;;;;;;;18.33;11.48;;;;;;;;;;5134229;28;20186;-64
2021/03/02 05:39:39;;;;;;;30.88;11.60;;;;;;;;;;5134464;28;20649;-63
2021/03/02 05:42:07;;;;;;;22.35;12.07;;;;;;;;;;5115529;28;20668;-62
2021/03/02 05:44:34;;;;;;;22.73;13.27;;;;;;;;;;5142642;27;20205;-63
2021/03/02 05:47:06;;;;;;;19.02;12.75;;;;;;;;;;5134975;28;20575;-65
2021/03/02 05:49:34;;;;;;;20.98;12.90;;;;;;;;;;5134605;28;20204;-62
2021/03/02 05:52:01;;;;;;;21.40;13.23;;;;;;;;;;5134172;27;20237;-63
2021/03/02 05:54:28;;;;;;;22.60;11.75;;;;;;;;;;5134138;28;20190;-63
2021/03/02 05:56:54;;;;;;;15.77;10.80;;;;;;;;;;5134881;28;20190;-63
2021/03/02 05:59:21;;;;;;;19.08;11.10;;;;;;;;;;5134366;28;20197;-62
2021/03/02 06:01:48;;;;;;;19.50;11.95;;;;;;;;;;5134670;28;20212;-63
2021/03/02 06:04:16;;;;;;;18.25;11.40;;;;;;;;;;5134325;28;20221;-63
2021/03/02 06:06:43;;;;;;;16.77;10.45;;;;;;;;;;5133537;28;20233;-63
2021/03/02 06:09:10;;;;;;;23.63;11.25;;;;;;;;;;5134980;27;20194;-63
2021/03/02 06:11:38;;;;;;;22.48;11.38;;;;;;;;;;5138274;27;20555;-63
2021/03/02 06:14:21;;;;;;;19.40;11.20;;;;;;;;;;5146019;27;20198;-63
2021/03/02 06:16:48;;;;;;;22.73;11.48;;;;;;;;;;5138306;27;20182;-63
2021/03/02 06:19:18;;;;;;;19.58;10.68;;;;;;;;;;5138217;27;20650;-63
2021/03/02 06:21:45;;;;;;;19.70;11.30;;;;;;;;;;5138401;27;20657;-63
2021/03/02 06:24:12;;;;;;;21.55;12.20;;;;;;;;;;5137927;27;20649;-63
2021/03/02 06:26:39;;;;;;;17.48;11.05;;;;;;;;;;5119374;27;20598;-63
2021/03/02 06:29:13;;;;;;;19.10;11.93;;;;;;;;;;5138492;27;20197;-63
2021/03/02 06:31:42;;;;;;;18.58;12.02;;;;;;;;;;5137960;27;20209;-63
2021/03/02 06:34:16;;;;;;;16.00;10.45;;;;;;;;;;5137845;27;20190;-63
2021/03/02 06:36:43;;;;;;;15.43;10.25;;;;;;;;;;5137968;27;20189;-63
2021/03/02 06:39:21;;;;;;;20.15;10.93;;;;;;;;;;5137858;27;20648;-63
2021/03/02 06:41:49;;;;;;;23.10;11.30;;;;;;;;;;5137537;27;20204;-64
2021/03/02 06:44:15;;;;;;;18.58;12.23;;;;;;;;;;5146488;27;20216;-63
2021/03/02 06:46:42;;;;;;;21.08;11.68;;;;;;;;;;5137117;27;20202;-63
2021/03/02 06:49:09;;;;;;;20.80;10.65;;;;;;;;;;5136646;27;20229;-63
2021/03/02 06:51:39;;;;;;;22.13;11.32;;;;;;;;;;5137065;27;20230;-63
2021/03/02 06:54:16;;;;;;;15.45;10.00;;;;;;;;;;5136745;27;20559;-63
2021/03/02 06:56:44;;;;;;;22.65;10.90;;;;;;;;;;5137592;27;20214;-63
2021/03/02 06:59:22;;;;;;;14.15;10.10;;;;;;;;;;5137644;27;20193;-63
2021/03/02 07:01:49;;;;;;;21.23;10.60;;;;;;;;;;5137096;27;20228;-63
2021/03/02 07:04:20;;;;;;;21.05;12.13;;;;;;;;;;5137303;27;20194;-63
2021/03/02 07:06:51;;;;;;;13.20;9.32;;;;;;;;;;5137679;27;20180;-63
2021/03/02 07:09:18;;;;;;;17.58;11.85;;;;;;;;;;5136760;27;20206;-63
2021/03/02 07:11:45;;;;;;;18.58;10.75;;;;;;;;;;5137179;27;20224;-63
2021/03/02 07:14:13;;;;;;;18.60;10.60;;;;;;;;;;5145549;27;20224;-70
2021/03/02 07:16:41;;;;;;;17.67;10.20;;;;;;;;;;5136967;27;20210;-63
2021/03/02 07:19:09;;;;;;;15.77;10.70;;;;;;;;;;5136385;27;20297;-63
2021/03/02 07:21:37;;;;;;;25.08;12.75;;;;;;;;;;5136114;27;20540;-63
2021/03/02 07:24:09;;;;;;;18.95;11.40;;;;;;;;;;5136243;27;20206;-63
2021/03/02 07:26:37;;;;;;;15.02;10.00;;;;;;;;;;5135917;27;20213;-63
2021/03/02 07:29:04;;;;;;;23.85;11.55;;;;;;;;;;5136905;27;20208;-63
2021/03/02 07:31:31;;;;;;;33.40;20.20;;;;;;;;;;5136463;27;20214;-63
2021/03/02 07:34:00;;;;;;;18.63;11.15;;;;;;;;;;5136547;27;20641;-63
2021/03/02 07:36:26;;;;;;;23.10;12.93;;;;;;;;;;5136688;27;20551;-63
2021/03/02 07:39:12;;;;;;;18.70;12.07;;;;;;;;;;5136374;27;20649;-63
2021/03/02 07:41:39;;;;;;;21.38;12.70;;;;;;;;;;5117453;27;20679;-63
2021/03/02 07:44:06;;;;;;;21.17;13.50;;;;;;;;;;5144869;27;20208;-63
2021/03/02 07:46:40;;;;;;;23.17;14.30;;;;;;;;;;5136543;27;20217;-64
2021/03/02 07:49:25;;;;;;;22.55;13.90;;;;;;;;;;5135839;27;20224;-64
2021/03/02 07:52:02;;;;;;;19.23;13.02;;;;;;;;;;5135667;27;20236;-64
2021/03/02 07:54:29;;;;;;;29.17;13.45;;;;;;;;;;5136071;27;20174;-64
2021/03/02 07:57:17;;;;;;;18.13;12.63;;;;;;;;;;5135860;27;20525;-64
2021/03/02 07:59:44;;;;;;;19.38;12.75;;;;;;;;;;5135704;27;20194;-64
2021/03/02 08:02:13;;;;;;;21.67;13.38;;;;;;;;;;5135769;27;20285;-64
2021/03/02 08:04:40;;;;;;;23.38;13.20;;;;;;;;;;5135567;27;20190;-64
2021/03/02 08:07:18;;;;;;;22.25;11.70;;;;;;;;;;5135343;27;20194;-64
2021/03/02 08:09:44;;;;;;;21.08;12.88;;;;;;;;;;5134891;27;20202;-64
2021/03/02 08:12:43;;;;;;;19.25;12.25;;;;;;;;;;5135635;27;20306;-64
2021/03/02 08:15:13;;;;;;;23.00;13.30;;;;;;;;;;5099210;27;20580;-64
2021/03/02 08:17:40;;;;;;;19.20;11.70;;;;;;;;;;5135696;27;20260;-63
2021/03/02 08:20:08;;;;;;;23.33;12.65;;;;;;;;;;5135431;27;20194;-63
2021/03/02 08:22:34;;;;;;;18.80;12.52;;;;;;;;;;5134901;27;20645;-63
2021/03/02 08:25:03;;;;;;;20.33;12.93;;;;;;;;;;5135604;27;20238;-63
2021/03/02 08:27:56;;;;;;;19.48;13.00;;;;;;;;;;5135618;27;20170;-63
2021/03/02 08:30:27;;;;;;;21.25;12.75;;;;;;;;;;5135341;27;20614;-64
2021/03/02 08:32:55;;;;;;;17.42;12.30;;;;;;;;;;5134367;27;20206;-64
2021/03/02 08:35:25;;;;;;;18.95;12.02;;;;;;;;;;5135244;27;20213;-64
2021/03/02 08:37:57;;;;;;;19.90;12.40;;;;;;;;;;5135159;27;20641;-64
2021/03/02 08:40:25;;;;;;;28.25;13.15;;;;;;;;;;5135363;27;20190;-64
2021/03/02 08:43:07;;;;;;;21.48;13.05;;;;;;;;;;5135710;27;20190;-64
2021/03/02 08:45:39;;;;;;;18.52;12.02;;;;;;;;;;5141311;27;20208;-64
2021/03/02 08:48:18;;;;;;;21.95;13.98;;;;;;;;;;5134919;27;20232;-64
2021/03/02 08:50:48;;;;;;;21.70;13.05;;;;;;;;;;5134715;27;20198;-63
2021/03/02 08:53:33;;;;;;;17.98;13.55;;;;;;;;;;5134528;27;20229;-64
2021/03/02 08:56:01;;;;;;;21.52;14.07;;;;;;;;;;5134219;27;20305;-64
2021/03/02 08:58:36;;;;;;;20.50;14.85;;;;;;;;;;5134992;27;20637;-64
2021/03/02 09:01:05;;;;;;;15.82;12.10;;;;;;;;;;5134613;27;20208;-64
2021/03/02 09:03:34;;;;;;;26.33;13.75;;;;;;;;;;5134539;27;20202;-64
2021/03/02 09:06:09;;;;;;;18.27;12.60;;;;;;;;;;5133706;27;20225;-64
2021/03/02 09:08:43;;;;;;;18.17;12.60;;;;;;;;;;5134612;27;20207;-64
2021/03/02 09:11:09;;;;;;;18.88;14.13;;;;;;;;;;5134377;27;20217;-64
2021/03/02 09:13:37;;;;;;;19.27;12.65;;;;;;;;;;5140989;27;20197;-64
2021/03/02 09:16:21;;;;;;;19.05;12.75;;;;;;;;;;5137358;27;20197;-65
2021/03/02 09:19:05;;;;;;;16.92;13.20;;;;;;;;;;5134849;28;20185;-64
2021/03/02 09:21:35;;;;;;;20.60;12.20;;;;;;;;;;5134398;28;20285;-64
2021/03/02 09:24:04;;;;;;;17.73;11.63;;;;;;;;;;5134411;28;20185;-64
2021/03/02 09:26:31;;;;;;;23.52;12.73;;;;;;;;;;5134458;28;20189;-64
2021/03/02 09:29:05;;;;;;;17.40;11.85;;;;;;;;;;5116481;28;20194;-64
2021/03/02 09:31:32;;;;;;;20.45;13.40;;;;;;;;;;5133744;28;20622;-64
2021/03/02 09:34:00;;;;;;;19.42;12.55;;;;;;;;;;5133736;28;20206;-64
2021/03/02 09:36:28;;;;;;;21.05;11.93;;;;;;;;;;5133936;28;20202;-64
2021/03/02 09:38:56;;;;;;;18.10;12.20;;;;;;;;;;5133413;28;20208;-64
2021/03/02 09:41:34;;;;;;;24.50;13.30;;;;;;;;;;5134212;28;20198;-64
2021/03/02 09:44:16;;;;;;;19.40;11.70;;;;;;;;;;5123750;27;20208;-64
2021/03/02 09:46:46;;;;;;;17.48;12.57;;;;;;;;;;5138745;27;20205;-64
2021/03/02 09:49:37;;;;;;;15.63;11.68;;;;;;;;;;5138454;27;20220;-64
2021/03/02 09:52:06;;;;;;;19.38;13.35;;;;;;;;;;5137555;27;20313;-64
2021/03/02 09:54:34;;;;;;;18.30;12.13;;;;;;;;;;5137819;27;20204;-64
2021/03/02 09:57:02;;;;;;;19.40;12.70;;;;;;;;;;5137082;27;20217;-64
2021/03/02 09:59:30;;;;;;;18.67;12.60;;;;;;;;;;5119267;27;20595;-64
2021/03/02 10:02:01;;;;;;;16.95;12.05;;;;;;;;;;5137841;27;20250;-64
2021/03/02 10:04:28;;;;;;;31.35;12.75;;;;;;;;;;5137962;27;20572;-64
2021/03/02 10:07:09;;;;;;;19.48;13.00;;;;;;;;;;5138453;27;20542;-64
2021/03/02 10:09:38;;;;;;;19.80;11.65;;;;;;;;;;5137695;27;20202;-64
2021/03/02 10:12:11;;;;;;;16.65;11.45;;;;;;;;;;5137721;27;20661;-65
2021/03/02 10:14:43;;;;;;;16.60;12.35;;;;;;;;;;5146645;27;20205;-64
2021/03/02 10:17:10;;;;;;;17.80;12.20;;;;;;;;;;5137976;27;20202;-64
2021/03/02 10:19:39;;;;;;;17.45;12.50;;;;;;;;;;5137586;27;20279;-64
2021/03/02 10:22:12;;;;;;;15.30;11.82;;;;;;;;;;5136751;27;20541;-64
2021/03/02 10:24:40;;;;;;;17.10;12.70;;;;;;;;;;5137236;27;20232;-64
2021/03/02 10:27:11;;;;;;;14.90;12.05;;;;;;;;;;5137678;27;20186;-64
2021/03/02 10:29:41;;;;;;;21.85;12.30;;;;;;;;;;5137649;27;20171;-64
2021/03/02 10:32:08;;;;;;;17.80;11.93;;;;;;;;;;5119575;27;20614;-64
2021/03/02 10:34:37;;;;;;;17.63;12.57;;;;;;;;;;5137803;27;20258;-64
2021/03/02 10:37:07;;;;;;;21.60;13.23;;;;;;;;;;5137369;27;20175;-64
2021/03/02 10:39:35;;;;;;;20.98;12.25;;;;;;;;;;5137263;27;20645;-64
2021/03/02 10:42:03;;;;;;;16.75;12.50;;;;;;;;;;5130160;27;20224;-64
2021/03/02 10:44:32;;;;;;;16.67;11.93;;;;;;;;;;5128867;27;20232;-64
2021/03/02 10:47:00;;;;;;;16.85;12.07;;;;;;;;;;5119737;27;20602;-64
2021/03/02 10:49:27;;;;;;;19.30;13.00;;;;;;;;;;5131340;27;20221;-64
2021/03/02 10:51:54;;;;;;;16.27;12.32;;;;;;;;;;5122137;27;20226;-64
2021/03/02 10:54:26;;;;;;;19.45;13.43;;;;;;;;;;5122693;27;20217;-64
2021/03/02 10:56:54;;;;;;;19.02;12.00;;;;;;;;;;5122217;27;20218;-64
2021/03/02 10:59:20;;;;;;;20.83;12.48;;;;;;;;;;5115998;27;20646;-64
2021/03/02 11:01:47;;;;;;;18.73;13.00;;;;;;;;;;5127263;27;20194;-64
2021/03/02 11:04:17;;;;;;;19.30;13.82;;;;;;;;;;5136582;27;20211;-65
2021/03/02 11:06:46;;;;;;;18.90;12.18;;;;;;;;;;5137035;27;20243;-65
2021/03/02 11:09:14;;;;;;;16.83;12.80;;;;;;;;;;5136726;27;20193;-65
2021/03/02 11:11:42;;;;;;;20.77;13.68;;;;;;;;;;5136725;27;20308;-65
2021/03/02 11:14:11;;;;;;;18.52;12.80;;;;;;;;;;5145782;27;20197;-65
2021/03/02 11:16:37;;;;;;;20.02;13.70;;;;;;;;;;5137148;27;20174;-65
2021/03/02 11:19:04;;;;;;;25.70;12.90;;;;;;;;;;5136857;27;20198;-65
2021/03/02 11:21:31;;;;;;;20.00;12.30;;;;;;;;;;5137841;27;20574;-64
2021/03/02 11:23:57;;;;;;;16.90;11.60;;;;;;;;;;5136989;27;20600;-63
2021/03/02 11:26:24;;;;;;;14.53;12.10;;;;;;;;;;5136280;27;20630;-65
2021/03/02 11:28:53;;;;;;;13.73;12.30;;;;;;;;;;5138475;27;20618;-64
2021/03/02 11:31:22;;;;;;;19.03;13.33;;;;;;;;;;5137761;27;20599;-64
2021/03/02 11:33:49;;;;;;;14.37;12.10;;;;;;;;;;5118113;27;20615;-64
2021/03/02 11:36:22;;;;;;;15.80;12.70;;;;;;;;;;5136411;27;20592;-64
2021/03/02 11:38:48;;;;;;;17.03;13.00;;;;;;;;;;5135654;27;20934;-64
2021/03/02 11:41:15;;;;;;;15.43;12.30;;;;;;;;;;5136779;27;21241;-64
2021/03/02 11:43:42;;;;;;;15.27;12.40;;;;;;;;;;5143461;27;21180;-64
2021/03/02 11:46:08;;;;;;;15.93;12.37;;;;;;;;;;5139603;27;20684;-64
2021/03/02 11:48:35;;;;;;;15.87;13.00;;;;;;;;;;5136136;27;21197;-64
2021/03/02 11:51:02;;;;;;;14.47;12.87;;;;;;;;;;5136253;27;20725;-64
2021/03/02 11:53:28;;;;;;;15.97;13.90;;;;;;;;;;5136335;27;20629;-64
2021/03/02 11:55:56;;;;;;;19.50;12.87;;;;;;;;;;5136518;27;20603;-64
2021/03/02 11:58:23;;;;;;;19.90;13.60;;;;;;;;;;5135888;27;20605;-64
2021/03/02 12:00:51;;;;;;;15.07;12.87;;;;;;;;;;5117587;27;20627;-64
2021/03/02 12:03:18;;;;;;;15.00;13.03;;;;;;;;;;5136238;27;20600;-64
2021/03/02 12:05:46;;;;;;;18.17;13.30;;;;;;;;;;5136140;27;21148;-64
2021/03/02 12:08:14;;;;;;;16.33;12.73;;;;;;;;;;5135700;27;20627;-64
2021/03/02 12:10:43;;;;;;;17.77;12.40;;;;;;;;;;5118139;27;20675;-64
2021/03/02 12:13:10;;;;;;;16.27;13.27;;;;;;;;;;5119513;27;20666;-64
2021/03/02 12:15:36;;;;;;;16.57;12.73;;;;;;;;;;5141392;27;20628;-64
2021/03/02 12:18:05;;;;;;;13.50;12.20;;;;;;;;;;5135590;27;21134;-64
2021/03/02 12:20:33;;;;;;;15.87;13.20;;;;;;;;;;5135871;27;20999;-64
2021/03/02 12:22:59;;;;;;;17.10;14.87;;;;;;;;;;5135599;27;20969;-64
2021/03/02 12:25:29;;;;;;;17.73;13.17;;;;;;;;;;5135559;27;20615;-64
2021/03/02 12:27:58;;;;;;;14.27;12.77;;;;;;;;;;5135421;27;20623;-64
2021/03/02 12:30:29;;;;;;;16.10;12.77;;;;;;;;;;5135517;27;20568;-64
2021/03/02 12:32:56;;;;;;;15.93;14.23;;;;;;;;;;5135465;27;20635;-64
2021/03/02 12:35:23;;;;;;;18.63;13.67;;;;;;;;;;5135150;27;20595;-64
2021/03/02 12:37:50;;;;;;;16.57;13.07;;;;;;;;;;5135418;27;20607;-64
2021/03/02 12:40:17;;;;;;;14.80;13.03;;;;;;;;;;5136046;27;20619;-64
2021/03/02 12:42:46;;;;;;;17.40;13.40;;;;;;;;;;5135236;27;21046;-64
2021/03/02 12:45:13;;;;;;;16.73;14.47;;;;;;;;;;5143890;27;21189;-64
2021/03/02 12:47:40;;;;;;;16.93;13.50;;;;;;;;;;5135062;27;20643;-64
2021/03/02 12:50:10;;;;;;;18.37;13.23;;;;;;;;;;5135764;27;20617;-64
2021/03/02 12:52:38;;;;;;;15.40;13.63;;;;;;;;;;5134529;27;20666;-64
2021/03/02 12:55:05;;;;;;;19.57;14.40;;;;;;;;;;5135155;27;20652;-64
2021/03/02 12:57:32;;;;;;;20.70;13.07;;;;;;;;;;5135413;27;20607;-64
2021/03/02 13:00:02;;;;;;;19.40;14.00;;;;;;;;;;5135272;27;20615;-64
2021/03/02 13:02:31;;;;;;;15.47;13.70;;;;;;;;;;5135152;27;20619;-64
2021/03/02 13:04:58;;;;;;;22.50;14.83;;;;;;;;;;5135505;27;20603;-64
2021/03/02 13:07:25;;;;;;;17.40;14.20;;;;;;;;;;5135019;27;20591;-64
2021/03/02 13:09:53;;;;;;;16.03;14.33;;;;;;;;;;5134376;27;20611;-64
2021/03/02 13:12:25;;;;;;;21.80;15.17;;;;;;;;;;5134670;27;20965;-64
2021/03/02 13:14:51;;;;;;;16.27;14.50;;;;;;;;;;5143778;27;21149;-64
2021/03/02 13:17:19;;;;;;;24.10;13.30;;;;;;;;;;5116679;28;20623;-64
2021/03/02 13:19:49;;;;;;;15.87;13.97;;;;;;;;;;5134033;27;20559;-64
2021/03/02 13:22:17;;;;;;;20.13;15.17;;;;;;;;;;5134893;28;20603;-64
2021/03/02 13:24:45;;;;;;;15.50;13.90;;;;;;;;;;5134858;28;20630;-64
2021/03/02 13:27:13;;;;;;;15.17;12.80;;;;;;;;;;5135010;28;20634;-64
2021/03/02 13:29:44;;;;;;;21.57;14.00;;;;;;;;;;5134543;28;20626;-64
2021/03/02 13:32:17;;;;;;;17.63;13.80;;;;;;;;;;5135222;28;21005;-64
2021/03/02 13:34:51;;;;;;;23.23;14.40;;;;;;;;;;5117523;28;20614;-64
2021/03/02 13:37:18;;;;;;;16.23;13.70;;;;;;;;;;5133972;28;20612;-64
2021/03/02 13:39:45;;;;;;;17.50;14.63;;;;;;;;;;5116770;28;20611;-64
2021/03/02 13:42:15;;;;;;;18.77;13.73;;;;;;;;;;5134865;28;20623;-65
2021/03/02 13:44:41;;;;;;;16.90;13.70;;;;;;;;;;5142879;27;20698;-64
2021/03/02 13:47:09;;;;;;;15.90;14.20;;;;;;;;;;5134870;28;20985;-65
2021/03/02 13:49:38;;;;;;;19.13;14.97;;;;;;;;;;5134640;28;20630;-64
2021/03/02 13:52:06;;;;;;;16.00;14.10;;;;;;;;;;5116078;28;20677;-64
2021/03/02 13:54:40;;;;;;;17.40;14.30;;;;;;;;;;5135005;28;20977;-64
2021/03/02 13:57:07;;;;;;;16.53;14.70;;;;;;;;;;5134585;28;20617;-64
2021/03/02 13:59:34;;;;;;;21.60;14.20;;;;;;;;;;5135269;28;20626;-64
2021/03/02 14:02:03;;;;;;;20.13;15.57;;;;;;;;;;5134179;28;20614;-64
2021/03/02 14:04:34;;;;;;;15.37;13.90;;;;;;;;;;5116092;28;20631;-64
2021/03/02 14:07:02;;;;;;;17.53;15.63;;;;;;;;;;5133983;28;20618;-64
2021/03/02 14:09:29;;;;;;;19.13;17.07;;;;;;;;;;5134941;28;20623;-64
2021/03/02 14:12:01;;;;;;;16.67;14.80;;;;;;;;;;5134406;28;20702;-64
2021/03/02 14:14:29;;;;;;;15.90;14.30;;;;;;;;;;5143272;27;20711;-64
2021/03/02 14:16:55;;;;;;;16.83;14.40;;;;;;;;;;5133685;28;20608;-64
2021/03/02 14:19:25;;;;;;;19.00;15.50;;;;;;;;;;5134526;28;20613;-64
2021/03/02 14:21:52;;;;;;;20.07;15.70;;;;;;;;;;5134037;28;20621;-64
2021/03/02 14:24:20;;;;;;;21.17;15.37;;;;;;;;;;5134579;28;20627;-64
2021/03/02 14:26:47;;;;;;;15.97;14.27;;;;;;;;;;5134608;28;20604;-64